sensor_id;sensor_type;location;lat;lon;timestamp;P1;durP1;ratioP1;P2;durP2;ratioP2
58978;SDS011;44763;50.464;30.612;2024-01-07T00:01:26;5.30;;;4.80;;
58978;SDS011;44763;50.464;30.612;2024-01-07T00:03:28;6.40;;;5.10;;
58978;SDS011;44763;50.464;30.612;2024-01-07T00:05:30;8.30;;;6.90;;
58978;SDS011;44763;50.464;30.612;2024-01-07T00:07:35;6.70;;;5.10;;
58978;SDS011;44763;50.464;30.612;2024-01-07T00:09:37;5.60;;;5.10;;
58978;SDS011;44763;50.464;30.612;2024-01-07T00:11:38;8.20;;;6.00;;
58978;SDS011;44763;50.464;30.612;2024-01-07T00:13:42;7.40;;;5.50;;
58978;SDS011;44763;50.464;30.612;2024-01-07T00:15:45;6.00;;;5.20;;
58978;SDS011;44763;50.464;30.612;2024-01-07T00:17:47;7.40;;;5.30;;
58978;SDS011;44763;50.464;30.612;2024-01-07T00:19:48;5.40;;;4.40;;
58978;SDS011;44763;50.464;30.612;2024-01-07T00:21:50;6.90;;;5.20;;
58978;SDS011;44763;50.464;30.612;2024-01-07T00:23:52;6.50;;;5.20;;
58978;SDS011;44763;50.464;30.612;2024-01-07T00:25:54;4.40;;;3.70;;
58978;SDS011;44763;50.464;30.612;2024-01-07T00:27:56;7.30;;;5.20;;
58978;SDS011;44763;50.464;30.612;2024-01-07T00:29:58;5.70;;;4.90;;
58978;SDS011;44763;50.464;30.612;2024-01-07T00:32:01;9.50;;;5.30;;
58978;SDS011;44763;50.464;30.612;2024-01-07T00:34:04;7.30;;;5.70;;
58978;SDS011;44763;50.464;30.612;2024-01-07T00:36:06;8.20;;;6.10;;
58978;SDS011;44763;50.464;30.612;2024-01-07T00:38:07;6.60;;;4.80;;
58978;SDS011;44763;50.464;30.612;2024-01-07T00:40:09;7.60;;;5.40;;
58978;SDS011;44763;50.464;30.612;2024-01-07T00:42:12;7.40;;;5.80;;
58978;SDS011;44763;50.464;30.612;2024-01-07T00:44:14;7.10;;;5.50;;
58978;SDS011;44763;50.464;30.612;2024-01-07T00:46:15;6.10;;;5.40;;
58978;SDS011;44763;50.464;30.612;2024-01-07T00:48:17;8.50;;;6.00;;
58978;SDS011;44763;50.464;30.612;2024-01-07T00:50:19;6.10;;;5.50;;
58978;SDS011;44763;50.464;30.612;2024-01-07T00:52:21;8.60;;;5.30;;
58978;SDS011;44763;50.464;30.612;2024-01-07T00:54:24;8.80;;;5.50;;
58978;SDS011;44763;50.464;30.612;2024-01-07T00:56:27;6.40;;;5.20;;
58978;SDS011;44763;50.464;30.612;2024-01-07T00:58:29;8.80;;;6.00;;
58978;SDS011;44763;50.464;30.612;2024-01-07T01:00:31;5.90;;;5.20;;
58978;SDS011;44763;50.464;30.612;2024-01-07T01:02:34;6.80;;;5.50;;
58978;SDS011;44763;50.464;30.612;2024-01-07T01:04:40;8.80;;;7.00;;
58978;SDS011;44763;50.464;30.612;2024-01-07T01:06:42;7.10;;;5.90;;
58978;SDS011;44763;50.464;30.612;2024-01-07T01:08:45;7.20;;;5.90;;
58978;SDS011;44763;50.464;30.612;2024-01-07T01:10:46;7.20;;;6.10;;
58978;SDS011;44763;50.464;30.612;2024-01-07T01:12:48;6.70;;;5.50;;
58978;SDS011;44763;50.464;30.612;2024-01-07T01:14:51;6.50;;;5.50;;
58978;SDS011;44763;50.464;30.612;2024-01-07T01:16:53;6.50;;;5.00;;
58978;SDS011;44763;50.464;30.612;2024-01-07T01:18:55;6.80;;;5.30;;
58978;SDS011;44763;50.464;30.612;2024-01-07T01:20:57;6.10;;;5.50;;
58978;SDS011;44763;50.464;30.612;2024-01-07T01:22:58;6.50;;;5.90;;
58978;SDS011;44763;50.464;30.612;2024-01-07T01:25:00;7.50;;;6.30;;
58978;SDS011;44763;50.464;30.612;2024-01-07T01:27:03;8.70;;;6.50;;
58978;SDS011;44763;50.464;30.612;2024-01-07T01:29:05;8.60;;;6.40;;
58978;SDS011;44763;50.464;30.612;2024-01-07T01:31:07;6.10;;;5.30;;
58978;SDS011;44763;50.464;30.612;2024-01-07T01:33:09;6.70;;;4.90;;
58978;SDS011;44763;50.464;30.612;2024-01-07T01:35:10;10.20;;;6.90;;
58978;SDS011;44763;50.464;30.612;2024-01-07T01:37:12;6.20;;;5.30;;
58978;SDS011;44763;50.464;30.612;2024-01-07T01:39:14;7.00;;;4.70;;
58978;SDS011;44763;50.464;30.612;2024-01-07T01:41:16;6.90;;;5.30;;
58978;SDS011;44763;50.464;30.612;2024-01-07T01:43:27;6.50;;;5.30;;
58978;SDS011;44763;50.464;30.612;2024-01-07T01:45:30;7.30;;;5.40;;
58978;SDS011;44763;50.464;30.612;2024-01-07T01:47:32;8.10;;;5.90;;
58978;SDS011;44763;50.464;30.612;2024-01-07T01:49:34;7.50;;;5.80;;
58978;SDS011;44763;50.464;30.612;2024-01-07T01:51:38;8.70;;;5.40;;
58978;SDS011;44763;50.464;30.612;2024-01-07T01:53:40;6.70;;;5.60;;
58978;SDS011;44763;50.464;30.612;2024-01-07T01:55:42;6.60;;;5.40;;
58978;SDS011;44763;50.464;30.612;2024-01-07T01:57:45;9.30;;;6.90;;
58978;SDS011;44763;50.464;30.612;2024-01-07T01:59:48;7.80;;;6.10;;
58978;SDS011;44763;50.464;30.612;2024-01-07T02:01:50;9.60;;;7.30;;
58978;SDS011;44763;50.464;30.612;2024-01-07T02:03:52;10.10;;;6.90;;
58978;SDS011;44763;50.464;30.612;2024-01-07T02:05:55;9.20;;;6.40;;
58978;SDS011;44763;50.464;30.612;2024-01-07T02:07:59;9.70;;;6.30;;
58978;SDS011;44763;50.464;30.612;2024-01-07T02:10:01;11.10;;;7.20;;
58978;SDS011;44763;50.464;30.612;2024-01-07T02:12:04;9.40;;;7.10;;
58978;SDS011;44763;50.464;30.612;2024-01-07T02:14:13;8.20;;;6.60;;
58978;SDS011;44763;50.464;30.612;2024-01-07T02:16:15;12.70;;;7.50;;
58978;SDS011;44763;50.464;30.612;2024-01-07T02:18:17;9.10;;;6.20;;
58978;SDS011;44763;50.464;30.612;2024-01-07T02:20:19;10.50;;;7.10;;
58978;SDS011;44763;50.464;30.612;2024-01-07T02:22:21;7.20;;;6.40;;
58978;SDS011;44763;50.464;30.612;2024-01-07T02:24:23;7.80;;;7.10;;
58978;SDS011;44763;50.464;30.612;2024-01-07T02:26:25;8.60;;;7.60;;
58978;SDS011;44763;50.464;30.612;2024-01-07T02:28:31;7.70;;;6.50;;
58978;SDS011;44763;50.464;30.612;2024-01-07T02:30:36;7.40;;;5.60;;
58978;SDS011;44763;50.464;30.612;2024-01-07T02:32:38;7.50;;;6.10;;
58978;SDS011;44763;50.464;30.612;2024-01-07T02:34:40;9.00;;;7.20;;
58978;SDS011;44763;50.464;30.612;2024-01-07T02:36:42;8.00;;;5.90;;
58978;SDS011;44763;50.464;30.612;2024-01-07T02:38:44;7.80;;;6.40;;
58978;SDS011;44763;50.464;30.612;2024-01-07T02:40:45;6.10;;;5.50;;
58978;SDS011;44763;50.464;30.612;2024-01-07T02:42:47;9.50;;;6.60;;
58978;SDS011;44763;50.464;30.612;2024-01-07T02:44:49;9.80;;;7.40;;
58978;SDS011;44763;50.464;30.612;2024-01-07T02:46:51;8.90;;;7.30;;
58978;SDS011;44763;50.464;30.612;2024-01-07T02:48:53;10.30;;;6.90;;
58978;SDS011;44763;50.464;30.612;2024-01-07T02:50:55;9.20;;;6.60;;
58978;SDS011;44763;50.464;30.612;2024-01-07T02:52:57;7.80;;;6.20;;
58978;SDS011;44763;50.464;30.612;2024-01-07T02:54:59;8.90;;;6.40;;
58978;SDS011;44763;50.464;30.612;2024-01-07T02:57:03;7.30;;;6.10;;
58978;SDS011;44763;50.464;30.612;2024-01-07T02:59:05;9.30;;;7.10;;
58978;SDS011;44763;50.464;30.612;2024-01-07T03:01:10;11.10;;;8.20;;
58978;SDS011;44763;50.464;30.612;2024-01-07T03:03:12;9.70;;;7.10;;
58978;SDS011;44763;50.464;30.612;2024-01-07T03:05:14;8.80;;;7.00;;
58978;SDS011;44763;50.464;30.612;2024-01-07T03:07:16;7.50;;;6.70;;
58978;SDS011;44763;50.464;30.612;2024-01-07T03:09:18;16.40;;;8.50;;
58978;SDS011;44763;50.464;30.612;2024-01-07T03:11:21;9.90;;;5.50;;
58978;SDS011;44763;50.464;30.612;2024-01-07T03:13:23;11.70;;;7.00;;
58978;SDS011;44763;50.464;30.612;2024-01-07T03:15:27;9.60;;;6.00;;
58978;SDS011;44763;50.464;30.612;2024-01-07T03:17:29;8.50;;;6.60;;
58978;SDS011;44763;50.464;30.612;2024-01-07T03:19:30;9.00;;;6.40;;
58978;SDS011;44763;50.464;30.612;2024-01-07T03:21:32;8.60;;;7.00;;
58978;SDS011;44763;50.464;30.612;2024-01-07T03:23:36;10.50;;;8.00;;
58978;SDS011;44763;50.464;30.612;2024-01-07T03:25:37;10.90;;;7.90;;
58978;SDS011;44763;50.464;30.612;2024-01-07T03:27:39;9.60;;;7.50;;
58978;SDS011;44763;50.464;30.612;2024-01-07T03:29:41;9.50;;;6.70;;
58978;SDS011;44763;50.464;30.612;2024-01-07T03:31:45;8.90;;;7.30;;
58978;SDS011;44763;50.464;30.612;2024-01-07T03:33:47;11.60;;;7.10;;
58978;SDS011;44763;50.464;30.612;2024-01-07T03:35:49;12.10;;;7.80;;
58978;SDS011;44763;50.464;30.612;2024-01-07T03:37:51;12.60;;;8.00;;
58978;SDS011;44763;50.464;30.612;2024-01-07T03:39:52;12.50;;;7.60;;
58978;SDS011;44763;50.464;30.612;2024-01-07T03:41:54;10.80;;;7.50;;
58978;SDS011;44763;50.464;30.612;2024-01-07T03:43:57;11.30;;;7.70;;
58978;SDS011;44763;50.464;30.612;2024-01-07T03:46:02;12.50;;;8.10;;
58978;SDS011;44763;50.464;30.612;2024-01-07T03:48:05;9.60;;;7.50;;
58978;SDS011;44763;50.464;30.612;2024-01-07T03:50:08;10.50;;;7.30;;
58978;SDS011;44763;50.464;30.612;2024-01-07T03:52:11;9.50;;;6.60;;
58978;SDS011;44763;50.464;30.612;2024-01-07T03:54:12;12.90;;;7.30;;
58978;SDS011;44763;50.464;30.612;2024-01-07T03:56:14;10.10;;;8.20;;
58978;SDS011;44763;50.464;30.612;2024-01-07T03:58:16;10.40;;;7.20;;
58978;SDS011;44763;50.464;30.612;2024-01-07T04:00:18;8.70;;;6.90;;
58978;SDS011;44763;50.464;30.612;2024-01-07T04:02:20;10.70;;;8.50;;
58978;SDS011;44763;50.464;30.612;2024-01-07T04:04:22;12.10;;;8.70;;
58978;SDS011;44763;50.464;30.612;2024-01-07T04:06:24;10.40;;;7.40;;
58978;SDS011;44763;50.464;30.612;2024-01-07T04:08:26;9.90;;;7.50;;
58978;SDS011;44763;50.464;30.612;2024-01-07T04:10:28;9.70;;;7.60;;
58978;SDS011;44763;50.464;30.612;2024-01-07T04:12:30;13.90;;;9.30;;
58978;SDS011;44763;50.464;30.612;2024-01-07T04:14:32;9.10;;;8.10;;
58978;SDS011;44763;50.464;30.612;2024-01-07T04:16:35;11.20;;;7.30;;
58978;SDS011;44763;50.464;30.612;2024-01-07T04:18:37;10.20;;;7.80;;
58978;SDS011;44763;50.464;30.612;2024-01-07T04:20:39;11.40;;;7.60;;
58978;SDS011;44763;50.464;30.612;2024-01-07T04:22:41;9.00;;;7.30;;
58978;SDS011;44763;50.464;30.612;2024-01-07T04:24:43;9.60;;;7.20;;
58978;SDS011;44763;50.464;30.612;2024-01-07T04:26:45;10.40;;;6.90;;
58978;SDS011;44763;50.464;30.612;2024-01-07T04:28:47;9.60;;;7.00;;
58978;SDS011;44763;50.464;30.612;2024-01-07T04:30:49;10.50;;;6.40;;
58978;SDS011;44763;50.464;30.612;2024-01-07T04:32:51;9.40;;;6.90;;
58978;SDS011;44763;50.464;30.612;2024-01-07T04:34:53;10.70;;;6.30;;
58978;SDS011;44763;50.464;30.612;2024-01-07T04:36:55;10.30;;;7.20;;
58978;SDS011;44763;50.464;30.612;2024-01-07T04:38:57;9.60;;;7.20;;
58978;SDS011;44763;50.464;30.612;2024-01-07T04:40:58;7.20;;;6.50;;
58978;SDS011;44763;50.464;30.612;2024-01-07T04:43:00;9.40;;;6.60;;
58978;SDS011;44763;50.464;30.612;2024-01-07T04:45:02;11.20;;;7.40;;
58978;SDS011;44763;50.464;30.612;2024-01-07T04:47:05;10.20;;;7.30;;
58978;SDS011;44763;50.464;30.612;2024-01-07T04:49:24;8.30;;;6.60;;
58978;SDS011;44763;50.464;30.612;2024-01-07T04:51:26;7.80;;;5.70;;
58978;SDS011;44763;50.464;30.612;2024-01-07T04:54:39;9.30;;;6.50;;
58978;SDS011;44763;50.464;30.612;2024-01-07T04:56:41;9.50;;;6.30;;
58978;SDS011;44763;50.464;30.612;2024-01-07T04:58:43;8.10;;;5.40;;
58978;SDS011;44763;50.464;30.612;2024-01-07T05:00:45;7.90;;;5.60;;
58978;SDS011;44763;50.464;30.612;2024-01-07T05:02:49;7.60;;;6.30;;
58978;SDS011;44763;50.464;30.612;2024-01-07T05:04:51;8.50;;;6.30;;
58978;SDS011;44763;50.464;30.612;2024-01-07T05:06:53;10.60;;;5.70;;
58978;SDS011;44763;50.464;30.612;2024-01-07T05:08:56;8.10;;;5.30;;
58978;SDS011;44763;50.464;30.612;2024-01-07T05:10:58;8.60;;;6.60;;
58978;SDS011;44763;50.464;30.612;2024-01-07T05:13:00;7.20;;;6.50;;
58978;SDS011;44763;50.464;30.612;2024-01-07T05:15:07;8.50;;;6.60;;
58978;SDS011;44763;50.464;30.612;2024-01-07T05:17:09;8.70;;;7.10;;
58978;SDS011;44763;50.464;30.612;2024-01-07T05:19:11;9.30;;;6.00;;
58978;SDS011;44763;50.464;30.612;2024-01-07T05:21:18;7.10;;;5.60;;
58978;SDS011;44763;50.464;30.612;2024-01-07T05:23:20;9.10;;;6.10;;
58978;SDS011;44763;50.464;30.612;2024-01-07T05:25:22;8.20;;;6.00;;
58978;SDS011;44763;50.464;30.612;2024-01-07T05:27:24;8.30;;;5.30;;
58978;SDS011;44763;50.464;30.612;2024-01-07T05:29:26;10.10;;;7.10;;
58978;SDS011;44763;50.464;30.612;2024-01-07T05:31:28;8.30;;;6.30;;
58978;SDS011;44763;50.464;30.612;2024-01-07T05:33:30;6.60;;;5.50;;
58978;SDS011;44763;50.464;30.612;2024-01-07T05:35:33;8.10;;;6.80;;
58978;SDS011;44763;50.464;30.612;2024-01-07T05:37:36;7.70;;;5.40;;
58978;SDS011;44763;50.464;30.612;2024-01-07T05:39:37;8.80;;;5.60;;
58978;SDS011;44763;50.464;30.612;2024-01-07T05:41:40;7.80;;;4.50;;
58978;SDS011;44763;50.464;30.612;2024-01-07T05:43:41;7.00;;;4.50;;
58978;SDS011;44763;50.464;30.612;2024-01-07T05:45:43;6.70;;;5.40;;
58978;SDS011;44763;50.464;30.612;2024-01-07T05:47:45;8.30;;;5.50;;
58978;SDS011;44763;50.464;30.612;2024-01-07T05:49:47;6.00;;;4.60;;
58978;SDS011;44763;50.464;30.612;2024-01-07T05:51:49;5.10;;;4.30;;
58978;SDS011;44763;50.464;30.612;2024-01-07T05:53:53;6.10;;;4.20;;
58978;SDS011;44763;50.464;30.612;2024-01-07T05:55:55;6.10;;;4.20;;
58978;SDS011;44763;50.464;30.612;2024-01-07T05:57:56;4.60;;;3.10;;
58978;SDS011;44763;50.464;30.612;2024-01-07T05:59:59;6.10;;;4.60;;
58978;SDS011;44763;50.464;30.612;2024-01-07T06:02:01;5.50;;;4.70;;
58978;SDS011;44763;50.464;30.612;2024-01-07T06:04:05;5.50;;;4.40;;
58978;SDS011;44763;50.464;30.612;2024-01-07T06:06:06;4.80;;;3.50;;
58978;SDS011;44763;50.464;30.612;2024-01-07T06:08:08;6.80;;;3.90;;
58978;SDS011;44763;50.464;30.612;2024-01-07T06:10:11;4.80;;;4.10;;
58978;SDS011;44763;50.464;30.612;2024-01-07T06:12:15;3.70;;;3.20;;
58978;SDS011;44763;50.464;30.612;2024-01-07T06:14:17;6.20;;;3.50;;
58978;SDS011;44763;50.464;30.612;2024-01-07T06:16:19;4.30;;;3.80;;
58978;SDS011;44763;50.464;30.612;2024-01-07T06:18:20;5.60;;;3.70;;
58978;SDS011;44763;50.464;30.612;2024-01-07T06:20:22;6.70;;;4.20;;
58978;SDS011;44763;50.464;30.612;2024-01-07T06:22:25;4.30;;;3.10;;
58978;SDS011;44763;50.464;30.612;2024-01-07T06:24:27;3.90;;;3.10;;
58978;SDS011;44763;50.464;30.612;2024-01-07T06:26:29;4.00;;;3.30;;
58978;SDS011;44763;50.464;30.612;2024-01-07T06:28:34;5.20;;;3.90;;
58978;SDS011;44763;50.464;30.612;2024-01-07T06:30:35;4.70;;;3.10;;
58978;SDS011;44763;50.464;30.612;2024-01-07T06:32:37;3.70;;;3.20;;
58978;SDS011;44763;50.464;30.612;2024-01-07T06:34:40;3.70;;;3.30;;
58978;SDS011;44763;50.464;30.612;2024-01-07T06:36:41;6.90;;;3.20;;
58978;SDS011;44763;50.464;30.612;2024-01-07T06:38:44;5.10;;;3.20;;
58978;SDS011;44763;50.464;30.612;2024-01-07T06:40:46;4.30;;;3.90;;
58978;SDS011;44763;50.464;30.612;2024-01-07T06:42:50;3.40;;;2.90;;
58978;SDS011;44763;50.464;30.612;2024-01-07T06:44:52;4.60;;;3.60;;
58978;SDS011;44763;50.464;30.612;2024-01-07T06:46:53;3.90;;;2.40;;
58978;SDS011;44763;50.464;30.612;2024-01-07T06:48:55;5.00;;;3.00;;
58978;SDS011;44763;50.464;30.612;2024-01-07T06:50:57;5.00;;;3.90;;
58978;SDS011;44763;50.464;30.612;2024-01-07T06:52:59;3.50;;;2.70;;
58978;SDS011;44763;50.464;30.612;2024-01-07T06:55:01;4.30;;;3.90;;
58978;SDS011;44763;50.464;30.612;2024-01-07T06:57:04;3.80;;;3.30;;
58978;SDS011;44763;50.464;30.612;2024-01-07T06:59:05;6.60;;;4.10;;
58978;SDS011;44763;50.464;30.612;2024-01-07T07:01:09;2.60;;;2.40;;
58978;SDS011;44763;50.464;30.612;2024-01-07T07:03:11;5.70;;;3.60;;
58978;SDS011;44763;50.464;30.612;2024-01-07T07:05:14;5.70;;;3.50;;
58978;SDS011;44763;50.464;30.612;2024-01-07T07:07:16;4.30;;;3.70;;
58978;SDS011;44763;50.464;30.612;2024-01-07T07:09:19;4.70;;;3.70;;
58978;SDS011;44763;50.464;30.612;2024-01-07T07:11:21;7.10;;;3.40;;
58978;SDS011;44763;50.464;30.612;2024-01-07T07:13:23;7.90;;;3.70;;
58978;SDS011;44763;50.464;30.612;2024-01-07T07:15:25;4.30;;;3.30;;
58978;SDS011;44763;50.464;30.612;2024-01-07T07:17:28;6.10;;;4.60;;
58978;SDS011;44763;50.464;30.612;2024-01-07T07:19:30;5.70;;;3.70;;
58978;SDS011;44763;50.464;30.612;2024-01-07T07:21:32;4.30;;;3.50;;
58978;SDS011;44763;50.464;30.612;2024-01-07T07:23:34;5.10;;;3.50;;
58978;SDS011;44763;50.464;30.612;2024-01-07T07:25:36;6.70;;;4.10;;
58978;SDS011;44763;50.464;30.612;2024-01-07T07:27:38;6.90;;;4.60;;
58978;SDS011;44763;50.464;30.612;2024-01-07T07:29:39;7.50;;;4.20;;
58978;SDS011;44763;50.464;30.612;2024-01-07T07:31:41;4.70;;;3.20;;
58978;SDS011;44763;50.464;30.612;2024-01-07T07:33:44;6.50;;;3.70;;
58978;SDS011;44763;50.464;30.612;2024-01-07T07:35:46;7.20;;;5.20;;
58978;SDS011;44763;50.464;30.612;2024-01-07T07:37:48;5.00;;;3.50;;
58978;SDS011;44763;50.464;30.612;2024-01-07T07:39:50;6.80;;;5.20;;
58978;SDS011;44763;50.464;30.612;2024-01-07T07:41:53;4.00;;;3.20;;
58978;SDS011;44763;50.464;30.612;2024-01-07T07:43:55;5.00;;;3.40;;
58978;SDS011;44763;50.464;30.612;2024-01-07T07:45:57;5.70;;;3.90;;
58978;SDS011;44763;50.464;30.612;2024-01-07T07:47:58;5.30;;;4.70;;
58978;SDS011;44763;50.464;30.612;2024-01-07T07:50:00;7.90;;;4.10;;
58978;SDS011;44763;50.464;30.612;2024-01-07T07:52:04;3.70;;;3.40;;
58978;SDS011;44763;50.464;30.612;2024-01-07T07:54:06;5.40;;;4.00;;
58978;SDS011;44763;50.464;30.612;2024-01-07T07:56:08;5.60;;;3.60;;
58978;SDS011;44763;50.464;30.612;2024-01-07T07:58:10;6.10;;;3.90;;
58978;SDS011;44763;50.464;30.612;2024-01-07T08:00:13;9.50;;;4.30;;
58978;SDS011;44763;50.464;30.612;2024-01-07T08:02:15;9.40;;;4.40;;
58978;SDS011;44763;50.464;30.612;2024-01-07T08:04:17;4.80;;;3.90;;
58978;SDS011;44763;50.464;30.612;2024-01-07T08:06:19;6.50;;;4.20;;
58978;SDS011;44763;50.464;30.612;2024-01-07T08:08:21;8.30;;;4.60;;
58978;SDS011;44763;50.464;30.612;2024-01-07T08:10:23;6.40;;;4.00;;
58978;SDS011;44763;50.464;30.612;2024-01-07T08:12:25;7.40;;;4.60;;
58978;SDS011;44763;50.464;30.612;2024-01-07T08:14:28;5.50;;;3.60;;
58978;SDS011;44763;50.464;30.612;2024-01-07T08:16:30;11.00;;;4.50;;
58978;SDS011;44763;50.464;30.612;2024-01-07T08:18:33;5.90;;;4.50;;
58978;SDS011;44763;50.464;30.612;2024-01-07T08:20:35;6.80;;;3.80;;
58978;SDS011;44763;50.464;30.612;2024-01-07T08:22:37;4.00;;;3.50;;
58978;SDS011;44763;50.464;30.612;2024-01-07T08:24:39;6.00;;;4.30;;
58978;SDS011;44763;50.464;30.612;2024-01-07T08:26:41;6.90;;;4.00;;
58978;SDS011;44763;50.464;30.612;2024-01-07T08:28:43;7.10;;;4.20;;
58978;SDS011;44763;50.464;30.612;2024-01-07T08:30:45;6.10;;;5.00;;
58978;SDS011;44763;50.464;30.612;2024-01-07T08:32:49;7.40;;;4.70;;
58978;SDS011;44763;50.464;30.612;2024-01-07T08:34:51;8.20;;;4.70;;
58978;SDS011;44763;50.464;30.612;2024-01-07T08:36:53;8.10;;;5.90;;
58978;SDS011;44763;50.464;30.612;2024-01-07T08:38:55;8.50;;;4.80;;
58978;SDS011;44763;50.464;30.612;2024-01-07T08:40:57;6.80;;;4.90;;
58978;SDS011;44763;50.464;30.612;2024-01-07T08:42:59;8.30;;;4.60;;
58978;SDS011;44763;50.464;30.612;2024-01-07T08:45:01;5.30;;;3.40;;
58978;SDS011;44763;50.464;30.612;2024-01-07T08:47:05;5.90;;;3.90;;
58978;SDS011;44763;50.464;30.612;2024-01-07T08:49:07;6.30;;;4.60;;
58978;SDS011;44763;50.464;30.612;2024-01-07T08:51:09;5.60;;;4.30;;
58978;SDS011;44763;50.464;30.612;2024-01-07T08:53:11;5.90;;;4.00;;
58978;SDS011;44763;50.464;30.612;2024-01-07T08:55:14;9.50;;;4.70;;
58978;SDS011;44763;50.464;30.612;2024-01-07T08:57:17;5.00;;;4.10;;
58978;SDS011;44763;50.464;30.612;2024-01-07T08:59:19;7.30;;;4.30;;
58978;SDS011;44763;50.464;30.612;2024-01-07T09:01:21;5.20;;;4.00;;
58978;SDS011;44763;50.464;30.612;2024-01-07T09:03:23;4.30;;;3.80;;
58978;SDS011;44763;50.464;30.612;2024-01-07T09:05:25;5.20;;;3.60;;
58978;SDS011;44763;50.464;30.612;2024-01-07T09:07:27;9.70;;;4.70;;
58978;SDS011;44763;50.464;30.612;2024-01-07T09:09:28;6.00;;;4.70;;
58978;SDS011;44763;50.464;30.612;2024-01-07T09:11:32;6.40;;;5.10;;
58978;SDS011;44763;50.464;30.612;2024-01-07T09:13:37;5.90;;;4.90;;
58978;SDS011;44763;50.464;30.612;2024-01-07T09:15:42;7.20;;;5.70;;
58978;SDS011;44763;50.464;30.612;2024-01-07T09:17:45;7.00;;;5.40;;
58978;SDS011;44763;50.464;30.612;2024-01-07T09:19:50;7.50;;;5.40;;
58978;SDS011;44763;50.464;30.612;2024-01-07T09:21:51;6.50;;;5.30;;
58978;SDS011;44763;50.464;30.612;2024-01-07T09:23:56;7.70;;;5.40;;
58978;SDS011;44763;50.464;30.612;2024-01-07T09:25:58;6.50;;;5.00;;
58978;SDS011;44763;50.464;30.612;2024-01-07T09:28:00;7.40;;;4.90;;
58978;SDS011;44763;50.464;30.612;2024-01-07T09:30:02;10.00;;;5.40;;
58978;SDS011;44763;50.464;30.612;2024-01-07T09:32:05;5.60;;;4.30;;
58978;SDS011;44763;50.464;30.612;2024-01-07T09:34:09;6.00;;;5.10;;
58978;SDS011;44763;50.464;30.612;2024-01-07T09:36:11;10.60;;;5.10;;
58978;SDS011;44763;50.464;30.612;2024-01-07T09:38:29;6.80;;;4.80;;
58978;SDS011;44763;50.464;30.612;2024-01-07T09:40:31;11.40;;;5.10;;
58978;SDS011;44763;50.464;30.612;2024-01-07T09:42:34;6.10;;;5.30;;
58978;SDS011;44763;50.464;30.612;2024-01-07T09:44:37;9.50;;;5.50;;
58978;SDS011;44763;50.464;30.612;2024-01-07T09:46:40;7.20;;;5.40;;
58978;SDS011;44763;50.464;30.612;2024-01-07T09:48:44;8.60;;;4.90;;
58978;SDS011;44763;50.464;30.612;2024-01-07T09:50:47;7.90;;;5.40;;
58978;SDS011;44763;50.464;30.612;2024-01-07T09:52:52;5.20;;;4.70;;
58978;SDS011;44763;50.464;30.612;2024-01-07T09:55:02;5.50;;;4.70;;
58978;SDS011;44763;50.464;30.612;2024-01-07T09:57:07;9.00;;;6.00;;
58978;SDS011;44763;50.464;30.612;2024-01-07T09:59:10;7.00;;;5.60;;
58978;SDS011;44763;50.464;30.612;2024-01-07T10:01:13;7.70;;;5.60;;
58978;SDS011;44763;50.464;30.612;2024-01-07T10:03:16;8.30;;;5.70;;
58978;SDS011;44763;50.464;30.612;2024-01-07T10:05:18;7.30;;;5.80;;
58978;SDS011;44763;50.464;30.612;2024-01-07T10:07:20;7.80;;;5.90;;
58978;SDS011;44763;50.464;30.612;2024-01-07T10:09:22;15.10;;;7.60;;
58978;SDS011;44763;50.464;30.612;2024-01-07T10:11:25;8.40;;;4.90;;
58978;SDS011;44763;50.464;30.612;2024-01-07T10:13:27;10.70;;;6.40;;
58978;SDS011;44763;50.464;30.612;2024-01-07T10:15:31;8.60;;;5.80;;
58978;SDS011;44763;50.464;30.612;2024-01-07T10:17:34;6.40;;;4.50;;
58978;SDS011;44763;50.464;30.612;2024-01-07T10:19:36;7.70;;;6.00;;
58978;SDS011;44763;50.464;30.612;2024-01-07T10:21:38;7.60;;;4.90;;
58978;SDS011;44763;50.464;30.612;2024-01-07T10:23:40;7.70;;;5.80;;
58978;SDS011;44763;50.464;30.612;2024-01-07T10:25:42;6.90;;;5.10;;
58978;SDS011;44763;50.464;30.612;2024-01-07T10:27:44;10.20;;;7.60;;
58978;SDS011;44763;50.464;30.612;2024-01-07T10:29:46;7.60;;;5.10;;
58978;SDS011;44763;50.464;30.612;2024-01-07T10:31:51;9.20;;;6.00;;
58978;SDS011;44763;50.464;30.612;2024-01-07T10:33:54;9.60;;;5.50;;
58978;SDS011;44763;50.464;30.612;2024-01-07T10:36:01;4.50;;;4.10;;
58978;SDS011;44763;50.464;30.612;2024-01-07T10:38:07;9.20;;;5.90;;
58978;SDS011;44763;50.464;30.612;2024-01-07T10:40:09;8.00;;;6.50;;
58978;SDS011;44763;50.464;30.612;2024-01-07T10:42:16;7.60;;;4.90;;
58978;SDS011;44763;50.464;30.612;2024-01-07T10:44:20;8.10;;;5.40;;
58978;SDS011;44763;50.464;30.612;2024-01-07T10:46:21;8.80;;;5.60;;
58978;SDS011;44763;50.464;30.612;2024-01-07T10:48:24;5.70;;;4.20;;
58978;SDS011;44763;50.464;30.612;2024-01-07T10:50:32;7.10;;;5.30;;
58978;SDS011;44763;50.464;30.612;2024-01-07T10:52:34;5.80;;;5.00;;
58978;SDS011;44763;50.464;30.612;2024-01-07T10:54:38;7.70;;;6.00;;
58978;SDS011;44763;50.464;30.612;2024-01-07T10:58:54;10.90;;;7.90;;
58978;SDS011;44763;50.464;30.612;2024-01-07T11:00:57;11.70;;;5.60;;
58978;SDS011;44763;50.464;30.612;2024-01-07T11:05:31;8.60;;;5.70;;
58978;SDS011;44763;50.464;30.612;2024-01-07T11:07:41;11.00;;;6.20;;
58978;SDS011;44763;50.464;30.612;2024-01-07T11:09:53;8.10;;;6.50;;
58978;SDS011;44763;50.464;30.612;2024-01-07T11:12:03;11.10;;;6.50;;
58978;SDS011;44763;50.464;30.612;2024-01-07T11:14:22;8.00;;;6.40;;
58978;SDS011;44763;50.464;30.612;2024-01-07T11:16:49;7.10;;;5.30;;
58978;SDS011;44763;50.464;30.612;2024-01-07T11:18:50;8.80;;;6.20;;
58978;SDS011;44763;50.464;30.612;2024-01-07T11:20:53;9.20;;;7.10;;
58978;SDS011;44763;50.464;30.612;2024-01-07T11:23:19;10.40;;;6.50;;
58978;SDS011;44763;50.464;30.612;2024-01-07T11:25:39;8.50;;;6.30;;
58978;SDS011;44763;50.464;30.612;2024-01-07T11:27:41;10.80;;;6.40;;
58978;SDS011;44763;50.464;30.612;2024-01-07T11:29:42;15.50;;;6.70;;
58978;SDS011;44763;50.464;30.612;2024-01-07T11:31:45;8.80;;;6.00;;
58978;SDS011;44763;50.464;30.612;2024-01-07T11:33:49;12.20;;;7.50;;
58978;SDS011;44763;50.464;30.612;2024-01-07T11:35:56;9.70;;;6.40;;
58978;SDS011;44763;50.464;30.612;2024-01-07T11:38:03;8.00;;;6.10;;
58978;SDS011;44763;50.464;30.612;2024-01-07T11:40:05;8.50;;;6.10;;
58978;SDS011;44763;50.464;30.612;2024-01-07T11:42:08;12.40;;;7.40;;
58978;SDS011;44763;50.464;30.612;2024-01-07T11:44:10;8.20;;;6.60;;
58978;SDS011;44763;50.464;30.612;2024-01-07T11:46:13;9.20;;;5.90;;
58978;SDS011;44763;50.464;30.612;2024-01-07T11:48:15;8.20;;;6.30;;
58978;SDS011;44763;50.464;30.612;2024-01-07T11:50:18;10.90;;;5.90;;
58978;SDS011;44763;50.464;30.612;2024-01-07T11:52:19;11.40;;;6.70;;
58978;SDS011;44763;50.464;30.612;2024-01-07T11:54:22;9.60;;;6.70;;
58978;SDS011;44763;50.464;30.612;2024-01-07T11:56:24;12.10;;;6.10;;
58978;SDS011;44763;50.464;30.612;2024-01-07T11:58:27;11.20;;;6.40;;
58978;SDS011;44763;50.464;30.612;2024-01-07T12:00:35;11.80;;;6.30;;
58978;SDS011;44763;50.464;30.612;2024-01-07T12:02:38;7.10;;;5.20;;
58978;SDS011;44763;50.464;30.612;2024-01-07T12:04:39;10.90;;;6.60;;
58978;SDS011;44763;50.464;30.612;2024-01-07T12:06:41;10.90;;;5.90;;
58978;SDS011;44763;50.464;30.612;2024-01-07T12:08:43;9.40;;;6.20;;
58978;SDS011;44763;50.464;30.612;2024-01-07T12:10:45;5.60;;;4.90;;
58978;SDS011;44763;50.464;30.612;2024-01-07T12:12:47;8.40;;;5.60;;
58978;SDS011;44763;50.464;30.612;2024-01-07T12:14:50;11.30;;;7.50;;